SBI005 URSS-UBBB
Flight info
| Callsign | SBI005 |
|---|---|
| Flight time | 1h 29m |
| Altitude | 37000 |
| Route | IRGID1T IRGID A944 RESLO B491 BAPNI A837 MOTEG/N0461F370 N23 ERLEV |
| Aircraft | A320/M-SDE3FGHIRWY/LB1 |
Departure
| Time | 2025-09-05 03:36 |
|---|---|
| Airport | Sochi International Airport (URSS) |
Arrival
| Time | 2025-09-05 05:05 |
|---|---|
| Airport | Heydar Aliyev International Airport (UBBB) |
| Time | Latitude | Longitude | Altitude | Speed | Heading |
|---|---|---|---|---|---|
| 2025-09-05 02:23 | 43.44791 | 39.94313 | 75 ft | 0 kts | 334° |
| 2025-09-05 03:25 | 43.44777 | 39.94322 | 65 ft | 3 kts | 334° |
| 2025-09-05 03:25 | 43.44740 | 39.94346 | 64 ft | 3 kts | 336° |
| 2025-09-05 03:26 | 43.44702 | 39.94365 | 69 ft | 3 kts | 351° |
| 2025-09-05 03:26 | 43.44677 | 39.94359 | 66 ft | 0 kts | 64° |
| 2025-09-05 03:29 | 43.44679 | 39.94364 | 67 ft | 2 kts | 64° |
| 2025-09-05 03:30 | 43.44713 | 39.94463 | 64 ft | 8 kts | 64° |
| 2025-09-05 03:30 | 43.44749 | 39.94568 | 73 ft | 4 kts | 65° |
| 2025-09-05 03:30 | 43.44762 | 39.94606 | 69 ft | 5 kts | 65° |
| 2025-09-05 03:31 | 43.44814 | 39.94761 | 73 ft | 13 kts | 65° |
| 2025-09-05 03:31 | 43.44897 | 39.95003 | 82 ft | 13 kts | 65° |
| 2025-09-05 03:32 | 43.44996 | 39.95281 | 90 ft | 6 kts | 69° |
| 2025-09-05 03:33 | 43.44902 | 39.95366 | 90 ft | 13 kts | 201° |
| 2025-09-05 03:33 | 43.44871 | 39.95287 | 87 ft | 0 kts | 246° |
| 2025-09-05 03:34 | 43.44828 | 39.95157 | 84 ft | 52 kts | 245° |
| 2025-09-05 03:34 | 43.44135 | 39.93111 | 146 ft | 165 kts | 246° |
| 2025-09-05 03:34 | 43.43707 | 39.91714 | 883 ft | 160 kts | 255° |
| 2025-09-05 03:35 | 43.43184 | 39.88737 | 2128 ft | 159 kts | 257° |
| 2025-09-05 03:35 | 43.42716 | 39.85771 | 3292 ft | 157 kts | 257° |
| 2025-09-05 03:36 | 43.41855 | 39.80563 | 4101 ft | 221 kts | 256° |
| 2025-09-05 03:37 | 43.41075 | 39.75998 | 4852 ft | 267 kts | 257° |
| 2025-09-05 03:37 | 43.40211 | 39.70924 | 6386 ft | 279 kts | 256° |
| 2025-09-05 03:38 | 43.39300 | 39.65652 | 7774 ft | 289 kts | 257° |
| 2025-09-05 03:38 | 43.38838 | 39.62959 | 7950 ft | 289 kts | 259° |
| 2025-09-05 03:38 | 43.38387 | 39.57476 | 7995 ft | 289 kts | 265° |
| 2025-09-05 03:39 | 43.38020 | 39.51979 | 7990 ft | 289 kts | 265° |
| 2025-09-05 03:39 | 43.38885 | 39.46836 | 7988 ft | 285 kts | 312° |
| 2025-09-05 03:40 | 43.44471 | 39.44217 | 10093 ft | 291 kts | 351° |
| 2025-09-05 03:41 | 43.48752 | 39.43360 | 10626 ft | 334 kts | 358° |
| 2025-09-05 03:41 | 43.51122 | 39.43539 | 10999 ft | 347 kts | 9° |
| 2025-09-05 03:42 | 43.58145 | 39.46613 | 12977 ft | 360 kts | 19° |
| 2025-09-05 03:42 | 43.62929 | 39.48882 | 14286 ft | 367 kts | 19° |
| 2025-09-05 03:42 | 43.65354 | 39.50032 | 14910 ft | 370 kts | 19° |
| 2025-09-05 03:43 | 43.69958 | 39.53214 | 16113 ft | 376 kts | 40° |
| 2025-09-05 03:43 | 43.73031 | 39.59054 | 17312 ft | 383 kts | 68° |
| 2025-09-05 03:44 | 43.74845 | 39.69900 | 19020 ft | 392 kts | 77° |
| 2025-09-05 03:45 | 43.75962 | 39.77338 | 20046 ft | 397 kts | 77° |
| 2025-09-05 03:45 | 43.77088 | 39.84868 | 21072 ft | 402 kts | 77° |
| 2025-09-05 03:45 | 43.77649 | 39.88610 | 21562 ft | 404 kts | 77° |
| 2025-09-05 03:46 | 43.78758 | 39.96292 | 22554 ft | 410 kts | 78° |
| 2025-09-05 03:46 | 43.79757 | 40.04118 | 23506 ft | 416 kts | 79° |
| 2025-09-05 03:47 | 43.80739 | 40.12045 | 24324 ft | 420 kts | 79° |
| 2025-09-05 03:49 | 43.84326 | 40.40334 | 27041 ft | 434 kts | 79° |
| 2025-09-05 03:51 | 43.88272 | 40.73855 | 29771 ft | 450 kts | 85° |
| 2025-09-05 03:53 | 43.89758 | 41.08426 | 32419 ft | 451 kts | 86° |
| 2025-09-05 03:55 | 43.91159 | 41.43134 | 34670 ft | 456 kts | 87° |
| 2025-09-05 03:57 | 43.92439 | 41.78580 | 36425 ft | 465 kts | 88° |
| 2025-09-05 03:59 | 43.93629 | 42.14742 | 37112 ft | 474 kts | 88° |
| 2025-09-05 04:01 | 43.94695 | 42.51234 | 37101 ft | 475 kts | 89° |
| 2025-09-05 04:03 | 43.90037 | 42.86932 | 37079 ft | 474 kts | 108° |
| 2025-09-05 04:05 | 43.82785 | 43.22161 | 37049 ft | 478 kts | 108° |
| 2025-09-05 04:06 | 43.76286 | 43.53148 | 37017 ft | 481 kts | 108° |
| 2025-09-05 04:09 | 43.67748 | 43.93237 | 37020 ft | 486 kts | 109° |
| 2025-09-05 04:11 | 43.60026 | 44.28986 | 37039 ft | 488 kts | 109° |
| 2025-09-05 04:13 | 43.52196 | 44.64940 | 37055 ft | 492 kts | 110° |
| 2025-09-05 04:14 | 43.45213 | 44.96540 | 37042 ft | 495 kts | 110° |
| 2025-09-05 04:17 | 43.36011 | 45.37395 | 37007 ft | 499 kts | 111° |
| 2025-09-05 04:18 | 43.25198 | 45.66405 | 36992 ft | 488 kts | 132° |
| 2025-09-05 04:21 | 43.07640 | 45.98974 | 37024 ft | 493 kts | 133° |
| 2025-09-05 04:22 | 42.93265 | 46.25220 | 37037 ft | 495 kts | 134° |
| 2025-09-05 04:24 | 42.76638 | 46.55265 | 37060 ft | 499 kts | 134° |
| 2025-09-05 04:26 | 42.59836 | 46.85312 | 37077 ft | 502 kts | 134° |
| 2025-09-05 04:29 | 42.40787 | 47.19037 | 37110 ft | 502 kts | 135° |
| 2025-09-05 04:31 | 42.23704 | 47.48926 | 37074 ft | 503 kts | 135° |
| 2025-09-05 04:33 | 42.06502 | 47.78739 | 37024 ft | 505 kts | 135° |
| 2025-09-05 04:35 | 41.89193 | 48.08449 | 37009 ft | 506 kts | 135° |
| 2025-09-05 04:37 | 41.71759 | 48.38074 | 36871 ft | 509 kts | 136° |
| 2025-09-05 04:38 | 41.52625 | 48.57739 | 31359 ft | 506 kts | 154° |
| 2025-09-05 04:41 | 41.27503 | 48.78945 | 25490 ft | 455 kts | 152° |
| 2025-09-05 04:41 | 41.22192 | 48.83389 | 24300 ft | 449 kts | 152° |
| 2025-09-05 04:42 | 41.16948 | 48.87785 | 23119 ft | 442 kts | 151° |
| 2025-09-05 04:42 | 41.14365 | 48.89946 | 22601 ft | 436 kts | 151° |
| 2025-09-05 04:42 | 41.09303 | 48.94168 | 21618 ft | 424 kts | 151° |
| 2025-09-05 04:43 | 41.04375 | 48.98272 | 20673 ft | 414 kts | 151° |
| 2025-09-05 04:43 | 40.99564 | 49.02265 | 19735 ft | 407 kts | 151° |
| 2025-09-05 04:44 | 40.92429 | 49.08178 | 18272 ft | 402 kts | 151° |
| 2025-09-05 04:45 | 40.87717 | 49.12073 | 17198 ft | 396 kts | 151° |
| 2025-09-05 04:45 | 40.83106 | 49.15878 | 16201 ft | 391 kts | 151° |
| 2025-09-05 04:45 | 40.80807 | 49.17778 | 15696 ft | 390 kts | 150° |
| 2025-09-05 04:46 | 40.76297 | 49.21716 | 14679 ft | 390 kts | 141° |
| 2025-09-05 04:46 | 40.73355 | 49.27664 | 13808 ft | 389 kts | 107° |
| 2025-09-05 04:47 | 40.72804 | 49.34566 | 13634 ft | 380 kts | 92° |
| 2025-09-05 04:47 | 40.72624 | 49.41507 | 13459 ft | 378 kts | 92° |
| 2025-09-05 04:48 | 40.72358 | 49.51874 | 13150 ft | 376 kts | 92° |
| 2025-09-05 04:48 | 40.72272 | 49.55311 | 13043 ft | 375 kts | 92° |
| 2025-09-05 04:49 | 40.72100 | 49.62124 | 12824 ft | 374 kts | 92° |
| 2025-09-05 04:49 | 40.71871 | 49.68963 | 12597 ft | 372 kts | 99° |
| 2025-09-05 04:50 | 40.69520 | 49.74791 | 12388 ft | 363 kts | 141° |
| 2025-09-05 04:50 | 40.65009 | 49.77206 | 12145 ft | 350 kts | 181° |
| 2025-09-05 04:51 | 40.57847 | 49.76112 | 11543 ft | 346 kts | 189° |
| 2025-09-05 04:51 | 40.55468 | 49.75696 | 11288 ft | 345 kts | 189° |
| 2025-09-05 04:52 | 40.48392 | 49.74468 | 10569 ft | 334 kts | 189° |
| 2025-09-05 04:52 | 40.46129 | 49.74077 | 10453 ft | 321 kts | 189° |
| 2025-09-05 04:53 | 40.39870 | 49.73003 | 10000 ft | 291 kts | 189° |
| 2025-09-05 04:54 | 40.35864 | 49.72311 | 9735 ft | 289 kts | 189° |
| 2025-09-05 04:54 | 40.31893 | 49.71616 | 9366 ft | 288 kts | 189° |
| 2025-09-05 04:55 | 40.27945 | 49.70938 | 9045 ft | 287 kts | 187° |
| 2025-09-05 04:55 | 40.25949 | 49.71087 | 8591 ft | 294 kts | 163° |
| 2025-09-05 04:56 | 40.20117 | 49.73363 | 7416 ft | 286 kts | 169° |
| 2025-09-05 04:57 | 40.15933 | 49.79022 | 6726 ft | 232 kts | 72° |
| 2025-09-05 04:57 | 40.17581 | 49.82646 | 6237 ft | 242 kts | 56° |
| 2025-09-05 04:58 | 40.19480 | 49.86393 | 5719 ft | 248 kts | 56° |
| 2025-09-05 04:58 | 40.21354 | 49.90114 | 5205 ft | 242 kts | 57° |
| 2025-09-05 04:59 | 40.23197 | 49.93795 | 4711 ft | 241 kts | 56° |
| 2025-09-05 04:59 | 40.25010 | 49.97417 | 4204 ft | 237 kts | 56° |
| 2025-09-05 04:59 | 40.25900 | 49.99192 | 3962 ft | 231 kts | 56° |
| 2025-09-05 05:00 | 40.28441 | 50.04273 | 3278 ft | 216 kts | 56° |
| 2025-09-05 05:01 | 40.30153 | 50.07449 | 2835 ft | 211 kts | 40° |
| 2025-09-05 05:01 | 40.32917 | 50.07966 | 2404 ft | 211 kts | 349° |
| 2025-09-05 05:02 | 40.35727 | 50.07189 | 1930 ft | 204 kts | 351° |
| 2025-09-05 05:02 | 40.37074 | 50.06802 | 1667 ft | 191 kts | 350° |
| 2025-09-05 05:02 | 40.39446 | 50.06066 | 1214 ft | 157 kts | 350° |
| 2025-09-05 05:03 | 40.41407 | 50.05453 | 815 ft | 140 kts | 350° |
| 2025-09-05 05:03 | 40.43267 | 50.04872 | 511 ft | 134 kts | 346° |
| 2025-09-05 05:04 | 40.45933 | 50.04040 | 26 ft | 127 kts | 347° |
| 2025-09-05 05:05 | 40.46848 | 50.03745 | 10 ft | 20 kts | 347° |
| 2025-09-05 05:05 | 40.46976 | 50.03704 | 13 ft | 20 kts | 346° |
| 2025-09-05 05:06 | 40.47489 | 50.03542 | 13 ft | 26 kts | 346° |
| 2025-09-05 05:06 | 40.47683 | 50.03568 | 12 ft | 4 kts | 76° |
| 2025-09-05 05:06 | 40.47681 | 50.03617 | 13 ft | 15 kts | 104° |
| 2025-09-05 05:07 | 40.47507 | 50.03680 | 14 ft | 11 kts | 159° |
| 2025-09-05 05:07 | 40.47376 | 50.03743 | 15 ft | 11 kts | 160° |
| 2025-09-05 05:08 | 40.47209 | 50.03825 | 14 ft | 12 kts | 159° |
| 2025-09-05 05:09 | 40.47004 | 50.03927 | 14 ft | 9 kts | 160° |
| 2025-09-05 05:09 | 40.46861 | 50.04022 | 16 ft | 11 kts | 122° |
| 2025-09-05 05:10 | 40.46882 | 50.04250 | 16 ft | 16 kts | 76° |
| 2025-09-05 05:10 | 40.46905 | 50.04404 | 15 ft | 18 kts | 84° |
| 2025-09-05 05:10 | 40.46913 | 50.04705 | 15 ft | 14 kts | 88° |
| 2025-09-05 05:11 | 40.46898 | 50.04904 | 16 ft | 0 kts | 136° |
| 2025-09-05 05:11 | 40.46867 | 50.04970 | 15 ft | 9 kts | 104° |
| 2025-09-05 05:12 | 40.46761 | 50.05024 | 17 ft | 7 kts | 201° |
| 2025-09-05 05:13 | 40.46678 | 50.04984 | 15 ft | 5 kts | 190° |
| 2025-09-05 05:13 | 40.46641 | 50.05023 | 16 ft | 3 kts | 114° |
| 2025-09-05 05:13 | 40.46635 | 50.05041 | 15 ft | 2 kts | 114° |
| 2025-09-05 05:14 | 40.46622 | 50.05078 | 15 ft | 3 kts | 116° |
| 2025-09-05 05:14 | 40.46620 | 50.05083 | 16 ft | 0 kts | 116° |